Terminal Aerodrome Forecast
Issued by NWS

Home | Current Version | Previous Version | Text Only | Print | Product List | Glossary On
Versions: 1 2 3 4 5 6 7 8 9 10 11 12 13 14
000
FTUS44 KOUN 211720
TAFPNC
TAF
KPNC 211720Z 2118/2218 19016G26KT P6SM SCT025 SCT250
      TEMPO 2118/2119 BKN025
     FM212200 20013KT P6SM SKC
     FM220800 28015G25KT P6SM SCT025=

USA.gov is the U.S. government's official web portal to all federal, state and local government web resources and services.